createdAt,value
2019-06-15T00:00:08.045Z,83.52
2019-06-15T00:02:40.543Z,83.79
2019-06-15T00:05:18.455Z,83.92
2019-06-15T00:07:50.343Z,83.88
2019-06-15T00:10:21.573Z,84.07
2019-06-15T00:12:52.671Z,83.71
2019-06-15T00:15:24.644Z,84.17
2019-06-15T00:17:57.601Z,84.16
2019-06-15T00:20:28.536Z,84.42
2019-06-15T00:22:59.552Z,84.50
2019-06-15T00:25:30.488Z,84.82
2019-06-15T00:28:01.417Z,84.83
2019-06-15T00:30:39.433Z,84.95
2019-06-15T00:33:14.345Z,85.19
2019-06-15T00:35:45.248Z,85.04
2019-06-15T00:38:16.168Z,85.76
2019-06-15T00:40:49.406Z,86.33
2019-06-15T00:43:20.639Z,86.76
2019-06-15T00:45:52.522Z,86.67
2019-06-15T00:48:24.463Z,86.61
2019-06-15T00:50:57.409Z,86.36
2019-06-15T00:53:28.305Z,85.98
2019-06-15T00:55:59.219Z,85.82
2019-06-15T00:58:30.102Z,85.61
2019-06-15T01:01:01.050Z,85.63
2019-06-15T01:03:32.001Z,85.40
2019-06-15T01:06:02.907Z,85.76
2019-06-15T01:08:34.783Z,85.67
2019-06-15T01:11:05.673Z,85.46
2019-06-15T01:13:36.604Z,84.78
2019-06-15T01:16:10.534Z,85.36
2019-06-15T01:18:48.738Z,85.35
2019-06-15T01:21:23.808Z,84.89
2019-06-15T01:23:54.867Z,85.29
2019-06-15T01:26:25.764Z,85.77
2019-06-15T01:29:00.630Z,85.92
2019-06-15T01:31:31.543Z,86.26
2019-06-15T01:34:02.527Z,87.45
2019-06-15T01:36:41.536Z,87.55
2019-06-15T01:39:16.674Z,87.04
2019-06-15T01:41:47.571Z,86.47
2019-06-15T01:44:18.522Z,86.26
2019-06-15T01:46:53.553Z,86.15
2019-06-15T01:49:30.952Z,85.73
2019-06-15T01:52:06.857Z,86.73
2019-06-15T01:54:40.947Z,87.06
2019-06-15T01:57:11.858Z,87.02
2019-06-15T01:59:47.864Z,87.38
2019-06-15T02:02:18.787Z,87.38
2019-06-15T02:04:49.687Z,87.11
2019-06-15T02:07:20.566Z,87.44
2019-06-15T02:09:51.556Z,88.38
2019-06-15T02:12:22.603Z,88.34
2019-06-15T02:14:57.997Z,88.65
2019-06-15T02:17:35.962Z,88.60
2019-06-15T02:20:06.977Z,88.62
2019-06-15T02:22:38.005Z,88.90
2019-06-15T02:25:09.005Z,89.09
2019-06-15T02:27:40.856Z,88.58
2019-06-15T02:30:11.796Z,88.59
2019-06-15T02:32:42.694Z,88.68
2019-06-15T02:35:16.788Z,88.64
2019-06-15T02:37:59.195Z,88.35
2019-06-15T02:40:30.208Z,88.53
2019-06-15T02:43:03.206Z,88.51
2019-06-15T02:45:36.280Z,88.93
2019-06-15T02:48:09.260Z,89.06
2019-06-15T02:50:42.272Z,89.61
2019-06-15T02:53:13.171Z,89.78
2019-06-15T02:55:50.454Z,89.81
2019-06-15T02:58:16.781Z,90.04
2019-06-15T03:01:03.338Z,89.73
2019-06-15T03:03:41.420Z,89.23
2019-06-15T03:06:12.408Z,89.13
2019-06-15T03:08:43.327Z,89.31
2019-06-15T03:11:14.371Z,89.33
2019-06-15T03:13:45.736Z,89.23
2019-06-15T03:16:16.784Z,89.09
2019-06-15T03:18:47.884Z,89.14
2019-06-15T03:21:18.801Z,89.16
2019-06-15T03:23:49.754Z,88.95
2019-06-15T03:26:20.718Z,88.38
2019-06-15T03:28:51.608Z,88.82
2019-06-15T03:31:22.551Z,89.12
2019-06-15T03:33:53.507Z,89.12
2019-06-15T03:36:24.437Z,89.70
2019-06-15T03:38:55.261Z,90.06
2019-06-15T03:41:26.231Z,89.92
2019-06-15T03:43:57.170Z,89.86
2019-06-15T03:46:33.843Z,89.61
2019-06-15T03:49:04.866Z,90.09
2019-06-15T03:51:36.789Z,90.01
2019-06-15T03:54:08.665Z,89.99
2019-06-15T03:56:43.476Z,89.38
2019-06-15T03:59:15.513Z,89.62
2019-06-15T04:01:49.500Z,91.78
2019-06-15T04:04:20.444Z,92.25
2019-06-15T04:06:51.391Z,92.23
2019-06-15T04:09:25.481Z,92.26
2019-06-15T04:12:01.161Z,91.43
2019-06-15T04:14:32.127Z,90.95
2019-06-15T04:17:03.146Z,90.65
2019-06-15T04:19:34.077Z,90.04
2019-06-15T04:22:10.882Z,89.27
2019-06-15T04:24:41.833Z,89.82
2019-06-15T04:27:18.001Z,89.32
2019-06-15T04:29:54.953Z,89.12
2019-06-15T04:32:25.967Z,88.52
2019-06-15T04:34:57.451Z,88.44
2019-06-15T04:37:28.515Z,88.77
2019-06-15T04:40:08.488Z,88.54
2019-06-15T04:42:40.369Z,88.79
2019-06-15T04:45:11.367Z,89.62
2019-06-15T04:47:48.187Z,89.52
2019-06-15T04:50:19.234Z,89.57
2019-06-15T04:52:52.116Z,90.40
2019-06-15T04:55:25.002Z,89.60
2019-06-15T04:57:55.990Z,88.57
2019-06-15T05:00:26.928Z,88.23
2019-06-15T05:03:03.826Z,88.05
2019-06-15T05:05:35.951Z,87.30
2019-06-15T05:08:07.804Z,87.95
2019-06-15T05:10:38.730Z,86.67
2019-06-15T05:13:21.067Z,86.58
2019-06-15T05:15:51.985Z,86.74
2019-06-15T05:18:22.861Z,85.38
2019-06-15T05:20:59.906Z,85.55
2019-06-15T05:23:30.867Z,84.99
2019-06-15T05:26:07.044Z,84.98
2019-06-15T05:28:38.997Z,85.67
2019-06-15T05:31:09.843Z,85.98
2019-06-15T05:33:40.838Z,86.08
2019-06-15T05:36:11.744Z,86.28
2019-06-15T05:38:42.670Z,86.53
2019-06-15T05:41:15.816Z,86.56
2019-06-15T05:43:47.757Z,86.25
2019-06-15T05:46:24.756Z,86.34
2019-06-15T05:48:55.685Z,86.04
2019-06-15T05:51:31.727Z,87.08
2019-06-15T05:54:02.827Z,86.80
2019-06-15T05:56:33.750Z,86.86
2019-06-15T05:59:04.640Z,86.96
2019-06-15T06:01:37.502Z,87.37
2019-06-15T06:04:09.445Z,87.19
2019-06-15T06:06:50.154Z,87.29
2019-06-15T06:09:24.303Z,87.55
2019-06-15T06:11:55.280Z,87.89
2019-06-15T06:14:26.324Z,87.22
2019-06-15T06:16:58.254Z,87.19
2019-06-15T06:19:29.167Z,87.43
2019-06-15T06:22:00.156Z,87.09
2019-06-15T06:24:32.114Z,87.10
2019-06-15T06:27:06.607Z,87.24
2019-06-15T06:29:37.519Z,87.18
2019-06-15T06:32:10.469Z,86.98
2019-06-15T06:34:42.273Z,87.34
2019-06-15T06:37:13.225Z,86.74
2019-06-15T06:39:50.080Z,87.26
2019-06-15T06:42:21.190Z,86.93
2019-06-15T06:44:52.989Z,87.04
2019-06-15T06:47:23.901Z,86.99
2019-06-15T06:49:55.741Z,87.48
2019-06-15T06:52:33.057Z,86.57
2019-06-15T06:55:10.016Z,86.64
2019-06-15T06:57:57.128Z,86.72
2019-06-15T07:00:27.285Z,87.14
2019-06-15T07:03:00.188Z,86.76
2019-06-15T07:05:31.210Z,87.10
2019-06-15T07:08:02.026Z,87.57
2019-06-15T07:10:33.929Z,87.31
2019-06-15T07:13:04.862Z,87.91
2019-06-15T07:15:35.833Z,88.18
2019-06-15T07:18:06.785Z,87.84
2019-06-15T07:20:38.816Z,87.33
2019-06-15T07:23:18.944Z,87.24
2019-06-15T07:25:49.824Z,86.93
2019-06-15T07:28:28.116Z,87.18
2019-06-15T07:30:59.069Z,87.44
2019-06-15T07:33:29.996Z,86.50
2019-06-15T07:36:01.030Z,86.68
2019-06-15T07:38:32.975Z,86.51
2019-06-15T07:41:04.081Z,86.52
2019-06-15T07:43:38.210Z,85.76
2019-06-15T07:46:10.054Z,85.58
2019-06-15T07:48:42.067Z,85.92
2019-06-15T07:51:14.390Z,84.42
2019-06-15T07:53:52.371Z,84.27
2019-06-15T07:56:28.163Z,84.39
2019-06-15T07:59:25.301Z,83.47
2019-06-15T08:02:00.682Z,83.51
2019-06-15T08:04:31.672Z,82.09
2019-06-15T08:07:06.387Z,82.10
2019-06-15T08:09:37.341Z,82.57
2019-06-15T08:12:19.377Z,81.92
2019-06-15T08:15:02.486Z,81.39
2019-06-15T08:17:45.824Z,81.46
2019-06-15T08:20:18.767Z,81.84
2019-06-15T08:22:53.214Z,81.60
2019-06-15T08:25:32.290Z,81.65
2019-06-15T08:28:03.209Z,82.25
2019-06-15T08:30:42.682Z,82.31
2019-06-15T08:33:19.583Z,81.78
2019-06-15T08:35:50.491Z,81.60
2019-06-15T08:38:21.450Z,81.55
2019-06-15T08:41:03.373Z,81.51
2019-06-15T08:43:39.001Z,81.43
2019-06-15T08:46:09.959Z,81.78
2019-06-15T08:48:45.057Z,81.94
2019-06-15T08:51:22.706Z,82.47
2019-06-15T08:54:00.618Z,82.23
2019-06-15T08:56:31.582Z,82.64
2019-06-15T08:59:02.509Z,83.13
2019-06-15T09:01:35.431Z,83.54
2019-06-15T09:04:07.382Z,84.02
2019-06-15T09:06:39.419Z,84.89
2019-06-15T09:09:10.421Z,85.84
2019-06-15T09:11:41.381Z,85.88
2019-06-15T09:14:12.325Z,86.59
2019-06-15T09:16:47.621Z,86.57
2019-06-15T09:19:21.606Z,88.12
2019-06-15T09:21:52.602Z,87.79
2019-06-15T09:24:23.430Z,88.04
2019-06-15T09:26:54.253Z,88.48
2019-06-15T09:29:25.079Z,88.46
2019-06-15T09:31:56.031Z,88.12
2019-06-15T09:34:26.909Z,88.02
2019-06-15T09:37:05.035Z,88.20
2019-06-15T09:39:36.013Z,88.46
2019-06-15T09:42:06.874Z,89.32
2019-06-15T09:44:38.854Z,88.79
2019-06-15T09:47:11.812Z,89.05
2019-06-15T09:49:42.999Z,88.93
2019-06-15T09:52:15.418Z,85.75
2019-06-15T09:54:46.394Z,86.51
2019-06-15T09:57:17.473Z,85.82
2019-06-15T09:59:48.447Z,86.42
2019-06-15T10:02:19.398Z,86.28
2019-06-15T10:04:50.298Z,86.64
2019-06-15T10:07:21.213Z,85.25
2019-06-15T10:09:52.115Z,83.60
2019-06-15T10:12:23.097Z,84.05
2019-06-15T10:14:54.004Z,84.26
2019-06-15T10:17:35.436Z,84.00
2019-06-15T10:20:06.741Z,79.78
2019-06-15T10:22:37.937Z,80.29
2019-06-15T10:25:09.334Z,78.67
2019-06-15T10:27:40.395Z,78.67
2019-06-15T10:30:11.650Z,77.56
2019-06-15T10:32:48.594Z,73.89
2019-06-15T10:35:28.407Z,75.26
2019-06-15T10:37:59.287Z,75.03
2019-06-15T10:40:30.152Z,73.99
2019-06-15T10:43:01.089Z,74.25
2019-06-15T10:45:32.014Z,72.75
2019-06-15T10:48:03.948Z,71.64
2019-06-15T10:50:34.882Z,72.26
2019-06-15T10:53:05.907Z,71.38
2019-06-15T10:55:36.949Z,71.22
2019-06-15T10:58:07.988Z,71.07
2019-06-15T11:00:38.802Z,68.11
2019-06-15T11:03:09.694Z,68.23
2019-06-15T11:05:49.862Z,68.07
2019-06-15T11:08:20.714Z,68.68
2019-06-15T11:11:21.798Z,68.02
2019-06-15T11:13:52.808Z,67.09
2019-06-15T11:16:23.688Z,63.86
2019-06-15T11:18:54.652Z,62.96
2019-06-15T11:21:27.492Z,63.51
2019-06-15T11:23:58.343Z,62.93
2019-06-15T11:26:29.273Z,63.25
2019-06-15T11:29:00.231Z,62.28
2019-06-15T11:31:38.054Z,63.52
2019-06-15T11:34:09.978Z,63.40
2019-06-15T11:36:40.914Z,62.53
2019-06-15T11:39:11.872Z,63.01
2019-06-15T11:41:43.755Z,62.60
2019-06-15T11:44:19.133Z,63.01
2019-06-15T11:46:50.183Z,62.80
2019-06-15T11:49:22.079Z,63.11
2019-06-15T11:51:52.940Z,63.70
2019-06-15T11:54:23.701Z,63.07
2019-06-15T11:56:54.563Z,62.97
2019-06-15T11:59:26.470Z,63.71
2019-06-15T12:01:57.391Z,62.53
2019-06-15T12:04:28.273Z,62.23
2019-06-15T12:06:59.205Z,62.93
2019-06-15T12:09:30.163Z,62.87
2019-06-15T12:12:01.221Z,62.97
2019-06-15T12:14:32.114Z,61.19
2019-06-15T12:17:04.049Z,62.05
2019-06-15T12:19:40.680Z,61.98
2019-06-15T12:22:11.521Z,62.45
2019-06-15T12:24:44.423Z,62.26
2019-06-15T12:27:15.306Z,62.33
2019-06-15T12:29:46.117Z,62.15
2019-06-15T12:32:19.067Z,60.99
2019-06-15T12:34:50.016Z,61.73
2019-06-15T12:37:20.889Z,59.57
2019-06-15T12:39:52.260Z,59.26
2019-06-15T12:42:23.223Z,58.55
2019-06-15T12:44:55.182Z,58.92
2019-06-15T12:47:26.154Z,59.12
2019-06-15T12:49:57.076Z,58.64
2019-06-15T12:52:27.948Z,59.21
2019-06-15T12:54:58.861Z,60.16
2019-06-15T12:57:29.866Z,60.21
2019-06-15T13:00:01.847Z,60.40
2019-06-15T13:02:41.180Z,59.56
2019-06-15T13:05:20.204Z,60.69
2019-06-15T13:07:59.505Z,59.59
2019-06-15T13:10:30.365Z,59.58
2019-06-15T13:13:08.694Z,59.28
2019-06-15T13:15:39.654Z,58.21
2019-06-15T13:18:15.676Z,58.57
2019-06-15T13:20:46.645Z,57.08
2019-06-15T13:23:17.458Z,58.14
2019-06-15T13:25:50.381Z,58.15
2019-06-15T13:28:21.280Z,56.46
2019-06-15T13:30:55.709Z,57.39
2019-06-15T13:33:26.655Z,57.55
2019-06-15T13:35:59.602Z,57.84
2019-06-15T13:38:37.868Z,58.58
2019-06-15T13:41:10.865Z,58.90
2019-06-15T13:43:41.691Z,58.80
2019-06-15T13:46:12.674Z,58.63
2019-06-15T13:48:46.576Z,57.39
2019-06-15T13:51:17.522Z,57.95
2019-06-15T13:53:48.470Z,57.38
2019-06-15T13:56:20.373Z,57.91
2019-06-15T13:58:59.562Z,58.17
2019-06-15T14:01:38.414Z,57.83
2019-06-15T14:04:11.292Z,58.35
2019-06-15T14:06:42.260Z,58.84
2019-06-15T14:09:14.224Z,58.88
2019-06-15T14:11:45.150Z,59.32
2019-06-15T14:14:16.033Z,59.29
2019-06-15T14:16:51.067Z,59.45
2019-06-15T14:19:23.129Z,58.82
2019-06-15T14:21:56.384Z,58.80
2019-06-15T14:24:33.620Z,59.91
2019-06-15T14:27:06.497Z,59.86
2019-06-15T14:29:42.530Z,59.74
2019-06-15T14:32:13.532Z,59.90
2019-06-15T14:34:44.467Z,59.34
2019-06-15T14:37:16.414Z,59.21
2019-06-15T14:39:48.253Z,59.11
2019-06-15T14:42:22.368Z,58.90
2019-06-15T14:44:55.387Z,58.92
2019-06-15T14:47:27.258Z,58.62
2019-06-15T14:50:16.519Z,58.51
2019-06-15T14:52:48.466Z,57.21
2019-06-15T14:55:36.661Z,58.03
2019-06-15T14:58:08.861Z,57.71
2019-06-15T15:00:39.752Z,58.52
2019-06-15T15:03:10.698Z,56.52
2019-06-15T15:05:43.653Z,55.40
2019-06-15T15:08:15.683Z,56.02
2019-06-15T15:10:46.640Z,56.67
2019-06-15T15:13:26.219Z,56.68
2019-06-15T15:15:59.673Z,57.16
2019-06-15T15:18:31.573Z,57.43
2019-06-15T15:21:03.546Z,56.48
2019-06-15T15:23:36.462Z,57.21
2019-06-15T15:26:07.755Z,57.29
2019-06-15T15:28:39.805Z,57.02
2019-06-15T15:31:11.757Z,57.59
2019-06-15T15:33:43.656Z,56.03
2019-06-15T15:36:16.727Z,56.01
2019-06-15T15:38:47.176Z,55.81
2019-06-15T15:41:19.123Z,55.89
2019-06-15T15:43:56.001Z,52.46
2019-06-15T15:46:27.934Z,53.87
2019-06-15T15:48:58.822Z,54.18
2019-06-15T15:51:29.821Z,55.20
2019-06-15T15:54:11.893Z,55.80
2019-06-15T15:56:42.819Z,55.21
2019-06-15T15:59:20.724Z,54.45
2019-06-15T16:01:51.589Z,53.95
2019-06-15T16:04:22.504Z,54.00
2019-06-15T16:07:02.679Z,53.98
2019-06-15T16:09:36.661Z,51.75
2019-06-15T16:12:09.550Z,51.21
2019-06-15T16:14:40.417Z,51.05
2019-06-15T16:17:11.213Z,50.77
2019-06-15T16:19:43.211Z,51.36
2019-06-15T16:22:14.161Z,51.40
2019-06-15T16:25:01.458Z,51.31
2019-06-15T16:27:37.014Z,50.26
2019-06-15T16:30:10.359Z,50.37
2019-06-15T16:32:41.320Z,50.84
2019-06-15T16:35:13.224Z,50.89
2019-06-15T16:37:48.340Z,51.80
2019-06-15T16:40:22.939Z,51.93
2019-06-15T16:42:57.742Z,51.97
2019-06-15T16:45:30.750Z,52.40
2019-06-15T16:48:02.687Z,51.41
2019-06-15T16:50:36.624Z,50.78
2019-06-15T16:53:11.205Z,50.92
2019-06-15T16:55:46.592Z,51.01
2019-06-15T16:58:21.675Z,51.19
2019-06-15T17:00:52.545Z,51.29
2019-06-15T17:03:29.873Z,51.75
2019-06-15T17:06:29.282Z,51.63
2019-06-15T17:09:00.271Z,51.19
2019-06-15T17:11:31.267Z,51.40
2019-06-15T17:14:07.811Z,51.01
2019-06-15T17:16:40.817Z,50.36
2019-06-15T17:19:11.706Z,50.98
2019-06-15T17:21:43.584Z,52.28
2019-06-15T17:24:16.944Z,50.56
2019-06-15T17:26:51.226Z,49.64
2019-06-15T17:29:23.201Z,50.37
2019-06-15T17:31:57.007Z,50.32
2019-06-15T17:34:27.723Z,51.08
2019-06-15T17:36:58.949Z,50.90
2019-06-15T17:39:32.111Z,50.28
2019-06-15T17:42:02.974Z,50.61
2019-06-15T17:44:33.945Z,51.02
2019-06-15T17:47:10.928Z,51.27
2019-06-15T17:49:41.826Z,51.17
2019-06-15T17:52:12.675Z,50.71
2019-06-15T17:54:43.676Z,50.96
2019-06-15T17:57:14.653Z,50.36
2019-06-15T17:59:47.022Z,50.00
2019-06-15T18:02:18.201Z,50.43
2019-06-15T18:04:49.149Z,50.13
2019-06-15T18:07:20.063Z,49.79
2019-06-15T18:09:52.699Z,50.24
2019-06-15T18:12:23.547Z,50.85
2019-06-15T18:14:56.673Z,50.44
2019-06-15T18:17:27.308Z,49.80
2019-06-15T18:19:58.207Z,49.89
2019-06-15T18:22:30.270Z,50.05
2019-06-15T18:25:01.852Z,50.16
2019-06-15T18:27:32.724Z,50.17
2019-06-15T18:30:06.388Z,49.81
2019-06-15T18:32:37.963Z,50.05
2019-06-15T18:35:09.300Z,50.69
2019-06-15T18:37:40.284Z,50.64
2019-06-15T18:40:16.046Z,50.79
2019-06-15T18:42:46.681Z,50.40
2019-06-15T18:45:18.229Z,50.25
2019-06-15T18:47:50.085Z,50.08
2019-06-15T18:50:34.064Z,50.19
2019-06-15T18:53:07.284Z,50.53
2019-06-15T18:55:39.039Z,49.64
2019-06-15T18:58:11.119Z,49.95
2019-06-15T19:00:42.393Z,50.23
2019-06-15T19:03:16.554Z,49.79
2019-06-15T19:05:47.885Z,50.03
2019-06-15T19:08:19.880Z,49.89
2019-06-15T19:10:56.224Z,50.10
2019-06-15T19:13:28.447Z,50.51
2019-06-15T19:16:00.176Z,50.25
2019-06-15T19:18:37.735Z,50.27
2019-06-15T19:21:09.484Z,50.14
2019-06-15T19:23:40.934Z,50.29
2019-06-15T19:26:13.240Z,50.42
2019-06-15T19:28:45.936Z,50.69
2019-06-15T19:31:16.847Z,50.60
2019-06-15T19:33:47.795Z,51.01
2019-06-15T19:36:23.480Z,54.30
2019-06-15T19:38:57.011Z,55.37
2019-06-15T19:41:28.497Z,57.11
2019-06-15T19:43:59.759Z,56.63
2019-06-15T19:46:30.828Z,57.77
2019-06-15T19:49:01.798Z,59.67
2019-06-15T19:51:32.621Z,59.74
2019-06-15T19:54:03.580Z,59.88
2019-06-15T19:56:37.019Z,60.23
2019-06-15T19:59:09.210Z,60.33
2019-06-15T20:01:41.039Z,59.62
2019-06-15T20:04:12.950Z,60.03
2019-06-15T20:06:45.936Z,61.35
2019-06-15T20:09:16.860Z,61.38
2019-06-15T20:11:47.721Z,61.55
2019-06-15T20:14:19.995Z,61.36
2019-06-15T20:16:53.214Z,62.16
2019-06-15T20:19:26.585Z,61.34
2019-06-15T20:22:00.632Z,62.11
2019-06-15T20:24:30.301Z,62.73
2019-06-15T20:27:01.371Z,62.51
2019-06-15T20:29:32.362Z,62.83
2019-06-15T20:32:06.890Z,62.84
2019-06-15T20:34:38.351Z,63.40
2019-06-15T20:37:09.494Z,64.47
2019-06-15T20:39:41.816Z,64.48
2019-06-15T20:42:13.205Z,64.72
2019-06-15T20:44:46.339Z,65.39
2019-06-15T20:47:21.925Z,65.38
2019-06-15T20:49:52.841Z,65.86
2019-06-15T20:52:23.706Z,65.94
2019-06-15T20:54:56.951Z,66.37
2019-06-15T20:57:32.279Z,66.43
2019-06-15T21:00:06.046Z,66.43
2019-06-15T21:02:36.532Z,65.59
2019-06-15T21:05:08.878Z,65.92
2019-06-15T21:07:39.901Z,66.69
2019-06-15T21:10:11.945Z,66.88
2019-06-15T21:12:42.854Z,67.33
2019-06-15T21:15:14.373Z,67.00
2019-06-15T21:17:51.124Z,67.05
2019-06-15T21:20:23.041Z,67.29
2019-06-15T21:22:53.977Z,67.04
2019-06-15T21:25:27.991Z,66.77
2019-06-15T21:27:59.970Z,66.71
2019-06-15T21:30:30.902Z,67.17
2019-06-15T21:33:02.075Z,67.11
2019-06-15T21:35:47.835Z,67.02
2019-06-15T21:38:06.518Z,67.63
2019-06-15T21:40:39.642Z,67.71
2019-06-15T21:43:12.536Z,67.57
2019-06-15T21:45:46.105Z,68.09
2019-06-15T21:48:16.136Z,67.83
2019-06-15T21:50:47.971Z,67.62
2019-06-15T21:53:18.931Z,67.39
2019-06-15T21:55:59.224Z,67.26
2019-06-15T21:58:32.109Z,67.89
2019-06-15T22:01:28.562Z,68.16
2019-06-15T22:04:02.982Z,67.72
2019-06-15T22:06:37.510Z,68.39
2019-06-15T22:09:12.679Z,68.23
2019-06-15T22:11:53.050Z,68.60
2019-06-15T22:14:26.407Z,69.13
2019-06-15T22:17:02.625Z,68.70
2019-06-15T22:19:33.640Z,68.90
2019-06-15T22:22:07.587Z,69.45
2019-06-15T22:24:37.867Z,69.75
2019-06-15T22:27:10.849Z,70.13
2019-06-15T22:29:42.182Z,71.35
2019-06-15T22:32:16.467Z,70.74
2019-06-15T22:34:47.066Z,71.03
2019-06-15T22:37:19.138Z,70.91
2019-06-15T22:39:51.046Z,71.62
2019-06-15T22:42:21.927Z,71.57
2019-06-15T22:45:03.083Z,71.70
2019-06-15T22:47:36.156Z,71.61
2019-06-15T22:50:08.765Z,71.91
2019-06-15T22:52:47.868Z,71.89
2019-06-15T22:55:18.748Z,72.07
2019-06-15T22:57:56.769Z,72.31
2019-06-15T23:00:27.607Z,72.38
2019-06-15T23:02:58.577Z,72.57
2019-06-15T23:05:29.584Z,72.12
2019-06-15T23:08:02.471Z,72.91
2019-06-15T23:10:36.811Z,72.97
2019-06-15T23:13:07.757Z,73.15
2019-06-15T23:15:38.707Z,73.09
2019-06-15T23:18:09.586Z,73.62
2019-06-15T23:20:46.364Z,73.33
2019-06-15T23:23:18.548Z,73.68
2019-06-15T23:25:49.580Z,73.77
2019-06-15T23:28:32.810Z,73.55
2019-06-15T23:31:07.332Z,73.60
2019-06-15T23:33:37.338Z,74.19
2019-06-15T23:36:11.033Z,74.12
2019-06-15T23:38:48.792Z,74.00
2019-06-15T23:41:19.794Z,73.68
2019-06-15T23:43:55.831Z,73.69
2019-06-15T23:46:31.448Z,74.13
2019-06-15T23:49:02.367Z,73.99
2019-06-15T23:51:33.326Z,74.01
2019-06-15T23:54:04.253Z,73.91
2019-06-15T23:56:39.395Z,73.79
2019-06-15T23:59:10.242Z,73.93
